Hauptseite
METAR-TAF:

METAR-TAF

Flughäfen :

La Chaux-de-Fonds, Schweiz

Flugplatz Les Eplatures

Breite: 47-05-03N, Länge: 006-47-37E, Höhe: 1027 m

Beobachtung

Neuester Wetterbericht von vor 32 Minuten, um 14:20 UTC
Wind 6 kt aus Nordost, variierte zwischen Nord/Nordwest und Ost
Temperatur 11°C
Luftfeuchtigkeit 58%
Luftdruck 1022 hPa
Sichtweite 10 km oder mehr
Aufgelockert bewölkt in der Höhe von 3000 ft
Aufgelockert bewölkt in der Höhe von 5000 ft

METAR: LSGC 201420Z 05006KT 340V090 9999 SCT030 SCT050 11/03 Q1022

Zeit: 16:52 (14:52 UTC)

Prognose

Neuester Wetterbericht von vor 3 Stunden und 27 Minuten, um 11:25 UTC
Gültige Prognose vom 20 um 12 UTC bis 20 um 21 UTC
Wind 5 kt aus Nord/Nordost
Sichtweite 10 km oder mehr
Aufgelockert bewölkt in der Höhe von 2000 ft

TAF: LSGC 201125Z 2012/2021 02005KT 9999 SCT020

Wetterbeobachtungen und Prognosen von mehr als 4000 Flughäfen (METAR und TAF Bericht).

Die verfügbaren Stationen werden durch gelbe und rote Markierungen auf der Karte dargestellt.

Führen Sie die Maus auf sie, um den Namen der Station zu sehen.

Darauf klicken, um die Beobachtung von Wetterbeobachtungen und Prognosen zu sehen.

Um die Karte zu ändern : klicken Sie auf den grünen Tasten mit einem schwarzen Kreuz Zum Vergrößern, auf den grünen Button mit einem Gedankenstrich zu verkleinern, oder auf die grünen Pfeile für benachbarte Karten.


METAR-TAF: